Pagrindinis puslapis
METAR-TAF:

METAR-TAF

Oro uostai :

Gulkana, Aliaska, Jungtinės Amerikos Valstijos

platuma: 62-09N, ilguma: 145-27W, Aukštis: 481 m

Dabartinis oras

Ataskaita buvo paskelbta 40 minutes, ne 20:07 UTC
Ramus vėjas
Temperatūra -5°C
Drėgmė 86%
Slėgis 1016 hPa
Matomumas: 14.5 km
Apsiniaukę ne aukštis 1600 ft

METAR: PAGK 282007Z AUTO 00000KT 9SM OVC016 M05/M07 A2999 RMK AO2 T10501067 TSNO

Laikas: 12:47 (20:47 UTC)

Prognozė

Ataskaita buvo paskelbta 3 valandos ir 27 minutes, ne 17:20 UTC
Prognozė galioja nuo 28 metu 18 UTC su 29 metu 18 UTC
Vėjas kt iš Šiaurės
Matomumas: 10 km
Mažai debesys ne aukštis 1000 ft
Apsiniaukę ne aukštis 2500 ft
Liūtis kaimynystėje
Nuo 29 metu 1200 UTC
Vėjas kt iš Šiaurės
Matomumas: 10 km
Apsiniaukę ne aukštis 1000 ft

TAF: PAGK 281720Z 2818/2918 00000KT P6SM VCSH FEW010 OVC025 FM291200 00000KT P6SM OVC010

Orai ataskaitas ir orų prognozės (METAR, TAF).

turimą stotys yra geltonos ir raudonos taškus žemėlapyje.

Perkelti pele per norėdami pamatyti stoties vardą.

Tada spustelėkite, norėdami matyti oro stebėjimo ir prognozės.

Norėdami pakeisti žemėlapį: spustelėkite ant žalios mygtukų su juodo kryžiaus žemyn,; žalią mygtuką su brūkšneliu, jei norite nutolinti; arba žalių rodyklių gretimoms žemėlapius.


METAR-TAF: